Latest Weather Observations for Wangaratta

IDV60801

Issued at 1:42 am EDT Thursday 28 January 2021 (issued every 10 minutes, with the page automatically refreshed every 10 minutes)

About weather observations | Map of weather stations | Latest weather observations for VIC | Other Formats
Station Details ID: 082138 Name: WANGARATTA AERO Lat: -36.42 Lon: 146.31 Height: 152.6 m
Data from the previous 72 hours. | See also: Recent months at Wangaratta
Date/Time
EDT
Temp
°C
App
Temp
°C
Dew
Point
°C
Rel
Hum
%
Delta-T
°C
Wind Press
QNH
hPa
Press
MSL
hPa
Rain since
9am
mm
Dir  Spd
km/h
Gust
km/h
Spd
kts
Gust
kts
28/01:30am 20.5 18.2 10.6 53 5.4 SE 13 17 7 9 1014.3 1013.6 0.0
28/01:00am 20.9 17.8 10.4 51 5.7 SE 17 24 9 13 1014.3 1013.6 0.0
28/12:30am 21.3 17.8 10.2 49 6.1 SE 19 26 10 14 1014.3 1013.6 0.0
28/12:00am 21.6 18.0 9.8 47 6.4 SE 19 26 10 14 1014.2 1013.5 0.0
 
Date/Time
EDT
Temp
°C
App
Temp
°C
Dew
Point
°C
Rel
Hum
%
Delta-T
°C
Wind Press
QNH
hPa
Press
MSL
hPa
Rain since
9am
mm
Dir  Spd
km/h
Gust
km/h
Spd
kts
Gust
kts
27/11:30pm 21.7 18.1 9.9 47 6.4 SE 19 30 10 16 1013.8 1013.1 0.0
27/11:00pm 21.8 18.2 10.0 47 6.4 SE 19 26 10 14 1013.6 1012.9 0.0
27/10:30pm 22.4 19.0 10.5 47 6.6 SE 19 26 10 14 1013.5 1012.8 0.0
27/10:00pm 22.9 20.6 11.9 50 6.2 SSE 15 20 8 11 1013.0 1012.3 0.0
27/09:30pm 22.7 21.3 12.3 52 5.9 SSE 11 15 6 8 1012.5 1011.8 0.0
27/09:00pm 23.7 21.7 12.7 50 6.4 S 15 17 8 9 1011.3 1010.7 0.0
27/08:30pm 24.7 21.7 12.6 47 7.0 SSE 20 26 11 14 1010.6 1010.0 0.0
27/08:00pm 26.4 24.2 13.2 44 7.8 SSE 17 26 9 14 1010.3 1009.7 0.0
27/07:30pm 28.3 25.6 13.0 39 9.1 SE 19 26 10 14 1009.8 1009.1 0.0
27/07:00pm 29.6 26.7 12.9 35 9.9 SE 20 28 11 15 1009.3 1008.6 0.0
27/06:30pm 29.9 26.8 12.3 33 10.4 SE 20 26 11 14 1008.8 1008.1 0.0
27/06:00pm 31.9 31.1 11.1 28 12.2 SW 6 11 3 6 1008.8 1008.1 0.0
27/05:30pm 31.6 31.1 10.9 28 12.0 SE 4 7 2 4 1008.8 1008.1 0.0
27/05:00pm 32.0 29.9 11.2 28 12.2 E 13 20 7 11 1009.2 1008.5 0.0
27/04:30pm 32.1 31.0 10.8 27 12.4 S 7 13 4 7 1009.3 1008.6 0.0
27/04:00pm 31.5 30.6 11.3 29 11.8 N 7 11 4 6 1009.4 1008.7 0.0
27/03:30pm 30.9 29.2 11.3 30 11.4 ENE 11 17 6 9 1009.8 1009.1 0.0
27/03:00pm 30.2 29.5 12.1 32 10.7 NE 7 15 4 8 1009.8 1009.1 0.0
27/02:30pm 30.4 29.7 13.2 35 10.3 NW 9 15 5 8 1010.0 1009.3 0.0
27/02:00pm 30.0 29.0 13.3 36 10.0 NNE 11 24 6 13 1010.2 1009.6 0.0
27/01:30pm 28.8 27.7 13.1 38 9.3 NE 11 20 6 11 1010.7 1010.1 0.0
27/01:00pm 28.7 28.1 14.5 42 8.6 N 11 19 6 10 1010.8 1010.2 0.0
27/12:30pm 27.3 26.4 13.6 43 8.2 N 11 17 6 9 1011.0 1010.4 0.0
27/12:00pm 26.5 26.4 13.9 45 7.5 SSW 7 13 4 7 1011.1 1010.5 0.0
27/11:30am 26.3 25.9 14.1 47 7.3 SSW 9 20 5 11 1011.0 1010.4 0.0
27/11:00am 24.8 24.3 13.7 50 6.6 S 9 17 5 9 1011.1 1010.5 0.0
27/10:30am 24.0 23.2 12.9 50 6.4 ESE 9 13 5 7 1010.9 1010.3 0.0
27/10:00am 22.4 20.9 13.2 56 5.3 S 13 17 7 9 1010.8 1010.2 0.0
27/09:30am 20.5 19.3 12.7 61 4.4 S 11 17 6 9 1010.6 1010.0 0.0
27/09:00am 19.5 18.3 12.8 65 3.8 S 11 15 6 8 1010.5 1009.9 11.0
27/08:30am 18.3 16.9 12.1 67 3.5 S 11 15 6 8 1010.2 1009.6 11.0
27/08:00am 17.2 15.9 12.5 74 2.6 SSW 11 15 6 8 1010.1 1009.5 11.0
27/07:30am 15.8 15.1 12.0 78 2.1 SSW 7 11 4 6 1009.8 1009.1 11.0
27/07:00am 14.9 13.9 12.2 84 1.5 SSW 9 11 5 6 1009.2 1008.5 11.0
27/06:30am 13.7 12.6 11.8 88 1.0 SSW 9 13 5 7 1008.9 1008.2 11.0
27/06:00am 13.7 12.4 11.2 85 1.3 SSW 9 11 5 6 1008.2 1007.5 11.0
27/05:30am 14.2 12.7 11.9 86 1.2 SSW 11 13 6 7 1008.0 1007.3 11.0
27/05:00am 13.9 12.3 11.6 86 1.2 SSW 11 11 6 6 1007.7 1007.0 11.0
27/04:30am 14.2 12.6 11.7 85 1.4 SW 11 11 6 6 1007.5 1006.8 11.0
27/04:00am 14.6 13.4 11.7 83 1.6 SSW 9 13 5 7 1007.4 1006.7 11.0
27/03:30am 14.9 13.4 11.9 82 1.6 SW 11 15 6 8 1007.2 1006.5 11.0
27/03:00am 15.3 13.5 12.1 81 1.8 SW 13 17 7 9 1007.1 1006.4 11.0
27/02:30am 15.6 14.3 12.4 81 1.8 SW 11 13 6 7 1006.9 1006.2 11.0
27/02:00am 15.8 14.6 12.7 82 1.7 SW 11 13 6 7 1006.9 1006.2 11.0
27/01:30am 16.0 15.3 13.3 84 1.5 SW 9 11 5 6 1007.0 1006.3 11.0
27/01:00am 16.2 15.4 12.9 81 1.8 SW 9 11 5 6 1006.8 1006.1 11.0
27/12:30am 16.5 15.3 12.8 79 2.1 SW 11 13 6 7 1006.8 1006.1 11.0
27/12:00am 16.9 16.1 12.8 77 2.3 WSW 9 13 5 7 1006.7 1006.0 11.0
 
Date/Time
EDT
Temp
°C
App
Temp
°C
Dew
Point
°C
Rel
Hum
%
Delta-T
°C
Wind Press
QNH
hPa
Press
MSL
hPa
Rain since
9am
mm
Dir  Spd
km/h
Gust
km/h
Spd
kts
Gust
kts
26/11:30pm 17.8 16.2 12.9 73 2.8 WSW 13 15 7 8 1006.6 1005.9 11.0
26/11:00pm 18.3 16.8 13.0 71 3.0 WSW 13 17 7 9 1006.4 1005.7 11.0
26/10:30pm 19.2 17.4 13.2 68 3.4 SW 15 22 8 12 1006.3 1005.6 11.0
26/10:00pm 20.0 18.6 13.5 66 3.8 SW 13 20 7 11 1005.9 1005.2 11.0
26/09:30pm 20.9 17.8 13.4 62 4.3 WSW 22 28 12 15 1005.3 1004.6 11.0
26/09:00pm 22.1 18.7 13.7 59 4.9 WSW 24 33 13 18 1004.8 1004.1 11.0
26/08:30pm 23.5 20.9 13.9 55 5.7 SW 20 32 11 17 1004.1 1003.4 11.0
26/08:00pm 25.3 21.7 14.1 50 6.7 WSW 26 37 14 20 1003.5 1002.8 11.0
26/07:30pm 26.8 22.8 14.2 46 7.6 W 28 39 15 21 1002.8 1002.1 11.0
26/07:00pm 28.3 24.9 13.8 41 8.7 W 24 32 13 17 1002.4 1001.7 11.0
26/06:30pm 29.3 27.1 14.3 40 9.1 WSW 19 24 10 13 1001.9 1001.2 11.0
26/06:00pm 29.6 27.2 13.8 38 9.6 WSW 19 26 10 14 1001.7 1001.0 11.0
26/05:30pm 29.9 27.7 14.4 38 9.4 WSW 19 30 10 16 1001.6 1000.9 11.0
26/05:00pm 29.8 28.0 15.9 43 8.7 SSW 20 28 11 15 1001.5 1000.8 11.0
26/04:30pm 29.8 28.2 15.9 43 8.7 SW 19 28 10 15 1001.4 1000.7 11.0
26/04:00pm 30.4 28.7 17.1 44 8.5 SW 22 35 12 19 1001.3 1000.6 11.0
26/03:30pm 28.1 26.9 17.0 51 7.0 SW 19 28 10 15 1001.2 1000.5 11.0
26/03:00pm 28.0 26.8 17.5 52 6.7 WSW 20 24 11 13 1001.1 1000.4 11.0
26/02:30pm 26.8 28.1 19.4 64 4.8 WSW 11 15 6 8 1001.0 1000.3 11.0
26/02:00pm 24.7 27.8 21.0 80 2.5 SE 6 9 3 5 1001.4 1000.7 11.0
26/01:30pm 23.2 26.2 21.3 89 1.3 SSW 7 11 4 6 1001.3 1000.6 11.0
26/01:05pm 21.3 23.8 21.0 98 0.2 SW 9 13 5 7 1001.3 1000.6 11.0
26/01:00pm 21.0 23.4 20.8 99 0.1 SW 9 13 5 7 1001.3 1000.6 11.0
26/12:30pm 23.4 25.4 22.2 93 0.8 NNW 15 22 8 12 1001.2 1000.5 9.8
26/12:05pm 23.0 24.1 22.0 94 0.7 N 19 26 10 14 1001.0 1000.3 9.8
26/12:00pm 23.0 24.0 22.2 95 0.5 N 20 26 11 14 1001.0 1000.3 9.8
26/11:45am 22.8 24.2 22.8 100 0.0 N 20 28 11 15 1000.6 999.9 9.8
26/11:41am 22.6 23.9 22.6 100 0.0 N 20 28 11 15 1000.8 1000.1 9.8
26/11:30am 22.4 22.8 22.4 100 0.0 N 24 35 13 19 1000.8 1000.1 9.8
26/11:00am 22.0 23.9 22.0 100 0.0 N 15 20 8 11 1000.6 999.9 7.4
26/10:48am 22.1 23.5 21.9 99 0.1 NNW 17 20 9 11 1000.9 1000.2 1.4
26/10:30am 22.2 23.7 22.0 99 0.1 N 17 26 9 14 1000.5 999.8 0.2
26/10:08am 22.2 23.2 22.2 100 0.0 N 20 30 11 16 1000.5 999.8 0.2
26/10:00am 22.2 23.2 22.2 100 0.0 N 20 30 11 16 1000.6 999.9 0.2
26/09:41am 22.0 22.9 22.0 100 0.0 N 20 26 11 14 1000.7 1000.0 0.2
26/09:30am 22.0 23.1 22.0 100 0.0 N 19 24 10 13 1000.9 1000.2 0.2
26/09:16am 21.5 22.4 21.5 100 0.0 N 19 22 10 12 1000.9 1000.2 0.2
26/09:00am 21.2 21.9 21.2 100 0.0 N 19 24 10 13 1000.8 1000.1 6.4
26/08:32am 21.2 21.7 21.2 100 0.0 N 20 28 11 15 1001.0 1000.3 4.0
26/08:30am 21.1 21.5 20.9 99 0.1 N 20 28 11 15 1001.0 1000.3 3.8
26/08:25am 21.2 21.6 20.9 98 0.2 N 20 28 11 15 1001.0 1000.3 3.6
26/08:00am 21.5 22.5 21.0 97 0.3 N 17 24 9 13 1000.9 1000.2 3.2
26/07:47am 21.2 21.5 20.4 95 0.5 N 19 26 10 14 1001.2 1000.5 3.2
26/07:30am 21.4 22.7 20.2 93 0.8 NNE 13 20 7 11 1001.0 1000.3 3.2
26/07:29am 21.5 22.9 20.3 93 0.8 NNE 13 15 7 8 1001.0 1000.3 3.0
26/07:00am 22.5 24.1 19.9 85 1.7 NNE 11 15 6 8 1000.6 999.9 0.4
26/06:30am 22.6 24.3 19.4 82 2.1 NNE 9 11 5 6 1000.4 999.7 0.4
26/06:00am 22.8 24.8 18.8 78 2.6 NE 6 7 3 4 1000.2 999.5 0.2
26/05:30am 23.7 24.9 17.4 68 3.9 NW 7 11 4 6 999.9 999.2 0.2
26/05:00am 23.3 25.8 18.2 73 3.2 SW 2 7 1 4 999.8 999.1 0.2
26/04:30am 23.4 23.4 16.2 64 4.4 WSW 11 19 6 10 1000.0 999.3 0.0
26/04:00am 25.0 24.7 14.5 52 6.3 SE 9 13 5 7 999.4 998.7 0.0
26/03:30am 25.7 21.0 14.2 49 6.9 WSW 32 46 17 25 999.2 998.5 0.0
26/03:00am 25.8 23.4 14.3 49 6.9 SW 20 39 11 21 999.2 998.5 0.0
26/02:30am 26.4 22.9 13.5 45 7.6 WSW 24 37 13 20 999.6 998.9 0.0
26/02:14am 26.7 21.6 13.1 43 8.0 WSW 32 50 17 27 999.5 998.8 0.0
26/02:00am 26.8 21.4 12.8 42 8.3 WSW 33 50 18 27 999.1 998.4 0.0
26/01:30am 28.6 23.1 9.3 30 10.8 W 28 50 15 27 999.1 998.4 0.0
26/01:28am 28.9 23.1 9.6 30 10.9 W 30 50 16 27 999.0 998.3 0.0
26/01:26am 29.0 23.7 9.7 30 10.9 W 28 50 15 27 998.9 998.2 0.0
26/01:00am 31.4 26.2 3.4 17 14.5 NW 20 32 11 17 998.1 997.3 0.0
26/12:30am 30.1 27.2 6.7 23 12.6 N 11 13 6 7 997.6 996.9 0.0
26/12:00am 31.1 28.5 6.2 21 13.5 N 9 13 5 7 997.7 997.0 0.0
 
Date/Time
EDT
Temp
°C
App
Temp
°C
Dew
Point
°C
Rel
Hum
%
Delta-T
°C
Wind Press
QNH
hPa
Press
MSL
hPa
Rain since
9am
mm
Dir  Spd
km/h
Gust
km/h
Spd
kts
Gust
kts
25/11:30pm 31.1 28.8 7.5 23 13.0 NNE 9 11 5 6 998.0 997.2 0.0
25/11:00pm 31.7 28.8 6.7 21 13.7 N 11 13 6 7 998.2 997.4 0.0
25/10:30pm 33.4 30.4 5.9 18 14.9 N 11 15 6 8 998.6 997.8 0.0
25/10:00pm 34.0 31.1 6.3 18 15.2 NNW 11 15 6 8 998.7 998.0 0.0
25/09:30pm 35.1 31.2 5.5 16 16.1 N 15 19 8 10 998.4 997.6 0.0
25/09:00pm 35.8 31.5 5.1 15 16.7 N 17 24 9 13 998.1 997.3 0.0
25/08:30pm 36.2 31.4 5.5 15 16.8 N 20 35 11 19 998.0 997.2 0.0
25/08:00pm 36.5 32.7 5.7 15 17.0 N 15 28 8 15 997.7 997.0 0.0
25/07:30pm 37.0 31.3 5.1 14 17.4 NNW 24 37 13 20 997.7 997.0 0.0
25/07:00pm 37.6 31.1 4.5 13 18.0 NNW 28 35 15 19 997.7 997.0 0.0
25/06:33pm 38.1 31.4 3.8 12 18.4 NNW 28 46 15 25 998.0 997.2 0.0
25/06:30pm 38.4 31.2 2.8 11 18.9 NNW 30 43 16 23 998.0 997.2 0.0
25/06:00pm 38.5 31.3 2.8 11 19.0 NNW 30 44 16 24 998.1 997.3 0.0
25/05:30pm 39.0 31.5 3.2 11 19.1 NNW 32 48 17 26 998.3 997.5 0.0
25/05:10pm 38.3 31.4 2.7 11 18.8 NNW 28 46 15 25 998.7 998.0 0.0
25/05:00pm 38.5 31.6 2.8 11 19.0 NNW 28 39 15 21 998.8 998.1 0.0
25/04:30pm 38.1 30.7 3.8 12 18.4 N 32 48 17 26 999.3 998.6 0.0
25/04:22pm 38.4 31.2 2.8 11 18.9 NNW 30 48 16 26 999.3 998.6 0.0
25/04:00pm 39.2 32.1 3.4 11 19.3 NNW 30 43 16 23 999.7 999.0 0.0
25/03:30pm 38.8 32.0 3.1 11 19.0 NW 28 52 15 28 999.9 999.2 0.0
25/03:03pm 38.6 30.8 2.9 11 19.0 NNW 33 52 18 28 1000.4 999.7 0.0
25/03:00pm 38.6 30.1 2.9 11 19.1 NNW 37 52 20 28 1000.3 999.6 0.0
25/02:30pm 39.0 32.2 3.2 11 19.1 NNW 28 50 15 27 1000.9 1000.2 0.0
25/02:02pm 38.6 32.0 4.1 12 18.7 NNW 28 46 15 25 1001.6 1000.9 0.0
25/02:00pm 38.2 30.8 3.8 12 18.6 NNW 32 46 17 25 1001.6 1000.9 0.0
25/01:35pm 40.5 33.3 3.0 10 20.2 NW 30 54 16 29 1001.7 1001.0 0.0
25/01:30pm 40.4 33.6 2.9 10 20.1 NNW 28 44 15 24 1002.0 1001.3 0.0
25/01:00pm 38.8 31.5 4.3 12 18.8 NNW 32 50 17 27 1002.7 1002.0 0.0
25/12:54pm 40.2 33.3 2.8 10 20.0 NW 28 50 15 27 1002.8 1002.1 0.0
25/12:30pm 38.5 32.6 4.1 12 18.6 NNW 24 35 13 19 1003.2 1002.5 0.0
25/12:00pm 38.0 33.0 4.8 13 18.2 NNE 20 30 11 16 1003.8 1003.1 0.0
25/11:30am 36.9 31.4 6.0 15 17.1 NNE 24 33 13 18 1004.6 1004.0 0.0
25/11:00am 34.2 30.0 7.3 19 15.0 N 19 26 10 14 1005.3 1004.6 0.0
25/10:30am 33.9 30.0 7.0 19 14.9 N 17 24 9 13 1005.7 1005.0 0.0
25/10:00am 32.7 29.1 8.2 22 13.8 N 17 20 9 11 1006.1 1005.4 0.0
25/09:30am 30.1 28.6 9.1 27 11.8 NE 7 11 4 6 1006.5 1005.8 0.0
25/09:00am 27.6 26.7 9.4 32 10.2 S 4 9 2 5 1007.1 1006.4 0.0
25/08:30am 25.8 25.5 10.0 37 8.8 SE 2 7 1 4 1006.8 1006.1 0.0
25/08:00am 21.6 20.7 10.7 50 6.0 SSW 6 7 3 4 1006.8 1006.1 0.0
25/07:30am 20.1 20.5 11.3 57 4.9 CALM 0 7 0 4 1006.5 1005.8 0.0
25/07:00am 17.1 17.2 10.2 64 3.7 CALM 0 0 0 0 1006.5 1005.8 0.0
25/06:30am 15.8 16.0 10.6 71 2.8 CALM 0 0 0 0 1006.1 1005.4 0.0
25/06:00am 16.1 16.1 9.8 66 3.3 CALM 0 0 0 0 1005.9 1005.2 0.0
25/05:30am 15.7 14.9 9.6 67 3.2 SSW 4 7 2 4 1005.6 1004.9 0.0
25/05:00am 14.9 13.6 7.7 62 3.6 SSW 4 7 2 4 1005.3 1004.6 0.0
25/04:30am 17.2 17.3 10.1 63 3.8 CALM 0 0 0 0 1005.3 1004.6 0.0
25/04:00am 15.9 15.7 8.9 63 3.6 CALM 0 0 0 0 1005.2 1004.5 0.0
25/03:30am 17.2 17.0 8.9 58 4.3 CALM 0 0 0 0 1005.3 1004.6 0.0
25/03:00am 17.8 16.9 9.2 57 4.5 SW 4 7 2 4 1005.4 1004.7 0.0
25/02:30am 18.6 17.2 8.8 53 5.1 SSW 6 9 3 5 1005.5 1004.8 0.0
25/02:00am 19.0 17.5 9.2 53 5.2 SSW 7 9 4 5 1005.7 1005.0 0.0

Other formats

Comma delimited format used in spreadsheet applications
http://www.bom.gov.au/fwo/IDV60801/IDV60801.94889.axf

JavaScript Object Notation format (JSON) in row-major order
http://www.bom.gov.au/fwo/IDV60801/IDV60801.94889.json

Data quality

Most of these data are generated automatically and are frequently updated. Quality checks on data are not normally performed. It is possible for incorrect values to appear. Refer to information at About Latest Weather Observations and please check the disclaimer before using these data.